createdAt,value
2022-12-01T00:01:20.230Z,40.42
2022-12-01T00:03:47.670Z,39.72
2022-12-01T00:06:16.900Z,40.28
2022-12-01T00:09:04.716Z,37.78
2022-12-01T00:11:31.842Z,39.25
2022-12-01T00:13:58.674Z,43.42
2022-12-01T00:16:25.704Z,39.60
2022-12-01T00:18:53.406Z,39.13
2022-12-01T00:21:24.534Z,38.17
2022-12-01T00:23:53.562Z,39.78
2022-12-01T00:26:21.755Z,39.03
2022-12-01T00:28:53.270Z,42.13
2022-12-01T00:31:20.656Z,39.55
2022-12-01T00:33:47.647Z,40.63
2022-12-01T00:36:14.445Z,41.03
2022-12-01T00:38:41.489Z,43.30
2022-12-01T00:41:08.666Z,41.13
2022-12-01T00:43:35.714Z,41.33
2022-12-01T00:46:03.024Z,42.83
2022-12-01T00:48:29.970Z,41.97
2022-12-01T00:50:56.794Z,43.83
2022-12-01T00:53:24.709Z,43.90
2022-12-01T00:55:53.954Z,43.67
2022-12-01T00:58:21.815Z,44.47
2022-12-01T01:00:48.856Z,43.08
2022-12-01T01:03:16.162Z,43.50
2022-12-01T01:05:43.885Z,43.88
2022-12-01T01:08:13.201Z,45.85
2022-12-01T01:10:41.722Z,45.63
2022-12-01T01:13:09.323Z,46.40
2022-12-01T01:15:36.699Z,46.38
2022-12-01T01:18:04.067Z,46.70
2022-12-01T01:20:31.502Z,48.05
2022-12-01T01:22:58.294Z,47.35
2022-12-01T01:25:25.476Z,47.50
2022-12-01T01:27:52.243Z,48.05
2022-12-01T01:30:19.177Z,50.33
2022-12-01T01:32:46.052Z,49.90
2022-12-01T01:35:12.839Z,48.00
2022-12-01T01:37:39.746Z,50.53
2022-12-01T01:40:07.243Z,49.00
2022-12-01T01:42:34.050Z,50.35
2022-12-01T01:45:00.851Z,52.00
2022-12-01T01:47:38.921Z,50.95
2022-12-01T01:50:10.811Z,53.45
2022-12-01T01:52:46.510Z,51.15
2022-12-01T01:55:15.384Z,52.20
2022-12-01T01:57:43.279Z,51.85
2022-12-01T02:00:12.915Z,49.67
2022-12-01T02:02:45.061Z,50.97
2022-12-01T02:05:23.274Z,55.22
2022-12-01T02:07:56.756Z,48.15
2022-12-01T02:10:54.995Z,51.80
2022-12-01T02:13:33.731Z,52.22
2022-12-01T02:16:15.338Z,53.63
2022-12-01T02:18:58.289Z,54.90
2022-12-01T02:21:47.197Z,53.95
2022-12-01T02:24:32.759Z,54.15
2022-12-01T02:27:06.984Z,52.58
2022-12-01T02:30:10.535Z,52.17
2022-12-01T02:32:55.452Z,52.55
2022-12-01T02:35:42.501Z,53.10
2022-12-01T02:38:23.250Z,51.42
2022-12-01T02:41:16.727Z,54.30
2022-12-01T02:43:46.308Z,52.50
2022-12-01T02:46:22.896Z,53.00
2022-12-01T02:48:53.299Z,54.75
2022-12-01T02:51:24.732Z,51.67
2022-12-01T02:53:52.918Z,50.63
2022-12-01T02:56:21.951Z,54.25
2022-12-01T02:58:48.764Z,52.20
2022-12-01T03:01:54.437Z,51.97
2022-12-01T03:04:21.583Z,54.17
2022-12-01T03:07:15.673Z,52.30
2022-12-01T03:09:54.368Z,49.13
2022-12-01T03:12:48.430Z,52.20
2022-12-01T03:15:40.303Z,51.92
2022-12-01T03:18:32.037Z,52.17
2022-12-01T03:21:10.771Z,53.05
2022-12-01T03:23:49.487Z,49.28
2022-12-01T03:26:20.197Z,48.85
2022-12-01T03:28:52.407Z,51.05
2022-12-01T03:31:23.984Z,50.50
2022-12-01T03:33:57.055Z,52.08
2022-12-01T03:36:42.735Z,49.72
2022-12-01T03:39:16.075Z,47.35
2022-12-01T03:41:47.473Z,48.95
2022-12-01T03:44:22.598Z,47.72
2022-12-01T03:46:55.064Z,49.10
2022-12-01T03:49:24.753Z,48.15
2022-12-01T03:52:15.147Z,47.25
2022-12-01T03:55:19.715Z,47.78
2022-12-01T03:58:01.911Z,46.35
2022-12-01T04:00:29.677Z,48.92
2022-12-01T04:02:58.624Z,46.95
2022-12-01T04:05:26.645Z,50.95
2022-12-01T04:07:54.004Z,44.67
2022-12-01T04:10:21.089Z,49.28
2022-12-01T04:12:48.024Z,48.60
2022-12-01T04:15:15.269Z,49.55
2022-12-01T04:17:44.226Z,49.72
2022-12-01T04:20:16.554Z,47.38
2022-12-01T04:22:43.821Z,49.80
2022-12-01T04:25:11.238Z,49.33
2022-12-01T04:27:38.346Z,49.28
2022-12-01T04:30:06.474Z,48.80
2022-12-01T04:32:38.772Z,52.33
2022-12-01T04:35:06.623Z,50.17
2022-12-01T04:37:33.713Z,49.45
2022-12-01T04:40:00.567Z,48.72
2022-12-01T04:42:27.370Z,47.80
2022-12-01T04:44:54.212Z,50.53
2022-12-01T04:47:21.035Z,51.47
2022-12-01T04:49:48.187Z,48.70
2022-12-01T04:52:15.396Z,48.55
2022-12-01T04:54:42.870Z,50.42
2022-12-01T04:57:09.699Z,49.03
2022-12-01T04:59:36.551Z,48.90
2022-12-01T05:02:04.279Z,49.95
2022-12-01T05:04:32.524Z,49.45
2022-12-01T05:06:59.349Z,49.85
2022-12-01T05:09:26.168Z,48.22
2022-12-01T05:11:52.969Z,46.85
2022-12-01T05:14:19.794Z,50.33
2022-12-01T05:16:46.717Z,49.55
2022-12-01T05:19:31.910Z,48.33
2022-12-01T05:21:58.718Z,48.15
2022-12-01T05:24:26.287Z,49.70
2022-12-01T05:26:53.086Z,51.85
2022-12-01T05:29:19.903Z,50.35
2022-12-01T05:31:47.264Z,48.80
2022-12-01T05:34:14.446Z,49.70
2022-12-01T05:36:41.973Z,50.03
2022-12-01T05:39:08.855Z,49.72
2022-12-01T05:41:35.650Z,47.17
2022-12-01T05:44:02.671Z,49.15
2022-12-01T05:46:29.463Z,48.47
2022-12-01T05:48:56.234Z,50.70
2022-12-01T05:51:23.052Z,51.42
2022-12-01T05:53:49.845Z,49.30
2022-12-01T05:56:16.636Z,49.22
2022-12-01T05:58:43.413Z,49.85
2022-12-01T06:01:10.815Z,50.05
2022-12-01T06:03:37.619Z,50.15
2022-12-01T06:06:04.497Z,48.22
2022-12-01T06:08:31.515Z,48.90
2022-12-01T06:10:58.341Z,48.15
2022-12-01T06:13:25.373Z,52.03
2022-12-01T06:16:03.418Z,51.25
2022-12-01T06:18:39.390Z,48.45
2022-12-01T06:21:07.010Z,47.63
2022-12-01T06:23:34.070Z,49.88
2022-12-01T06:26:00.866Z,50.42
2022-12-01T06:28:27.974Z,53.55
2022-12-01T06:31:00.988Z,50.85
2022-12-01T06:33:30.198Z,50.67
2022-12-01T06:36:05.806Z,47.83
2022-12-01T06:38:34.192Z,49.92
2022-12-01T06:41:01.498Z,51.33
2022-12-01T06:43:28.671Z,49.15
2022-12-01T06:46:01.222Z,53.40
2022-12-01T06:48:29.412Z,52.83
2022-12-01T06:51:00.651Z,52.08
2022-12-01T06:53:28.646Z,53.15
2022-12-01T06:56:04.289Z,51.70
2022-12-01T06:58:31.361Z,52.50
2022-12-01T07:00:59.055Z,53.20
2022-12-01T07:03:26.132Z,52.50
2022-12-01T07:06:00.327Z,53.67
2022-12-01T07:08:31.182Z,54.00
2022-12-01T07:11:07.415Z,50.42
2022-12-01T07:13:35.138Z,52.00
2022-12-01T07:16:03.158Z,52.85
2022-12-01T07:18:30.927Z,51.78
2022-12-01T07:21:11.423Z,51.22
2022-12-01T07:23:38.264Z,51.92
2022-12-01T07:26:14.865Z,53.70
2022-12-01T07:28:42.259Z,54.10
2022-12-01T07:31:11.699Z,53.88
2022-12-01T07:33:39.067Z,49.50
2022-12-01T07:36:06.892Z,49.58
2022-12-01T07:38:34.637Z,52.17
2022-12-01T07:41:10.045Z,52.65
2022-12-01T07:43:37.230Z,51.15
2022-12-01T07:46:21.747Z,52.70
2022-12-01T07:48:49.466Z,51.10
2022-12-01T07:51:17.238Z,50.25
2022-12-01T07:53:45.191Z,49.05
2022-12-01T07:56:12.406Z,50.42
2022-12-01T07:58:39.247Z,52.92
2022-12-01T08:01:08.155Z,49.30
2022-12-01T08:03:35.750Z,49.75
2022-12-01T08:06:03.551Z,52.75
2022-12-01T08:08:32.328Z,50.60
2022-12-01T08:11:05.128Z,52.42
2022-12-01T08:13:32.356Z,49.65
2022-12-01T08:15:59.218Z,49.15
2022-12-01T08:18:26.154Z,49.92
2022-12-01T08:20:58.149Z,48.28
2022-12-01T08:23:25.020Z,49.22
2022-12-01T08:25:52.614Z,49.95
2022-12-01T08:28:19.884Z,48.70
2022-12-01T08:30:47.360Z,49.25
2022-12-01T08:33:14.298Z,50.78
2022-12-01T08:35:41.192Z,49.78
2022-12-01T08:38:08.874Z,51.83
2022-12-01T08:40:35.674Z,50.92
2022-12-01T08:43:02.740Z,53.80
2022-12-01T08:45:29.729Z,49.00
2022-12-01T08:47:59.930Z,49.95
2022-12-01T08:50:28.195Z,48.83
2022-12-01T08:52:55.094Z,49.83
2022-12-01T08:55:22.319Z,48.15
2022-12-01T08:57:49.342Z,48.28
2022-12-01T09:00:16.635Z,49.47
2022-12-01T09:02:43.407Z,47.28
2022-12-01T09:05:10.634Z,48.65
2022-12-01T09:07:37.483Z,50.03
2022-12-01T09:10:05.475Z,52.63
2022-12-01T09:12:32.351Z,48.70
2022-12-01T09:14:59.159Z,48.70
2022-12-01T09:17:26.053Z,50.08
2022-12-01T09:19:52.878Z,49.58
2022-12-01T09:22:19.667Z,51.40
2022-12-01T09:24:46.510Z,47.53
2022-12-01T09:27:13.525Z,46.35
2022-12-01T09:29:40.315Z,48.30
2022-12-01T09:32:07.133Z,45.88
2022-12-01T09:34:33.935Z,51.08
2022-12-01T09:37:00.770Z,46.80
2022-12-01T09:39:29.741Z,46.22
2022-12-01T09:42:08.831Z,46.63
2022-12-01T09:44:57.126Z,46.47
2022-12-01T09:47:37.757Z,45.13
2022-12-01T09:50:13.258Z,46.08
2022-12-01T09:52:47.675Z,40.67
2022-12-01T09:55:17.083Z,43.78
2022-12-01T09:57:50.767Z,44.60
2022-12-01T10:00:21.671Z,42.30
2022-12-01T10:02:54.522Z,42.45
2022-12-01T10:05:26.657Z,41.90
2022-12-01T10:08:02.196Z,40.40
2022-12-01T10:10:37.863Z,44.42
2022-12-01T10:13:17.998Z,43.67
2022-12-01T10:16:13.459Z,41.67
2022-12-01T10:19:06.001Z,40.80
2022-12-01T10:22:00.653Z,40.45
2022-12-01T10:24:30.316Z,41.40
2022-12-01T10:27:48.193Z,40.22
2022-12-01T10:30:18.501Z,41.03
2022-12-01T10:32:54.500Z,40.10
2022-12-01T10:35:24.742Z,39.93
2022-12-01T10:38:00.218Z,38.08
2022-12-01T10:40:28.638Z,38.55
2022-12-01T10:42:55.859Z,39.03
2022-12-01T10:45:26.218Z,39.63
2022-12-01T10:48:15.335Z,37.13
2022-12-01T10:50:50.078Z,40.83
2022-12-01T10:53:32.446Z,38.92
2022-12-01T10:56:05.661Z,36.92
2022-12-01T11:01:34.687Z,36.85
2022-12-01T11:04:34.739Z,37.17
2022-12-01T11:07:02.293Z,38.03
2022-12-01T11:09:30.892Z,36.65
2022-12-01T11:12:05.148Z,38.28
2022-12-01T11:14:51.938Z,36.85
2022-12-01T11:17:41.119Z,36.22
2022-12-01T11:20:28.749Z,36.55
2022-12-01T11:23:17.585Z,36.85
2022-12-01T11:25:58.339Z,35.95
2022-12-01T11:28:25.630Z,36.40
2022-12-01T11:31:08.275Z,34.83
2022-12-01T11:33:52.944Z,34.80
2022-12-01T11:36:36.258Z,33.88
2022-12-01T11:39:03.274Z,32.25
2022-12-01T11:41:37.923Z,34.80
2022-12-01T11:44:43.134Z,33.85
2022-12-01T11:47:24.383Z,34.42
2022-12-01T11:49:57.620Z,34.08
2022-12-01T11:52:27.600Z,36.50
2022-12-01T11:54:56.699Z,33.83
2022-12-01T11:57:34.105Z,33.17
2022-12-01T12:00:10.803Z,32.40
2022-12-01T12:03:04.768Z,32.65
2022-12-01T12:09:26.220Z,34.08
2022-12-01T12:12:28.203Z,34.42
2022-12-01T12:15:10.735Z,34.15
2022-12-01T12:18:22.842Z,33.88
2022-12-01T12:21:24.912Z,33.58
2022-12-01T12:23:57.556Z,32.38
2022-12-01T12:26:58.400Z,32.00
2022-12-01T12:29:43.499Z,34.28
2022-12-01T12:32:19.546Z,35.45
2022-12-01T12:35:00.362Z,33.05
2022-12-01T12:38:02.669Z,31.50
2022-12-01T12:40:32.464Z,32.03
2022-12-01T12:43:14.264Z,31.67
2022-12-01T12:45:47.345Z,31.85
2022-12-01T12:48:35.987Z,30.05
2022-12-01T12:51:57.479Z,30.38
2022-12-01T12:54:40.124Z,29.65
2022-12-01T12:57:36.281Z,27.27
2022-12-01T13:00:12.474Z,28.23
2022-12-01T13:03:13.406Z,29.80
2022-12-01T13:05:49.395Z,31.25
2022-12-01T13:08:40.415Z,29.48
2022-12-01T13:11:14.946Z,28.73
2022-12-01T13:14:06.892Z,28.08
2022-12-01T13:16:41.690Z,29.35
2022-12-01T13:19:32.103Z,28.65
2022-12-01T13:22:00.166Z,27.98
2022-12-01T13:24:30.123Z,28.20
2022-12-01T13:27:18.205Z,27.35
2022-12-01T13:29:56.159Z,29.08
2022-12-01T13:32:35.631Z,29.98
2022-12-01T13:35:20.381Z,29.05
2022-12-01T13:37:47.502Z,30.73
2022-12-01T13:40:24.768Z,28.98
2022-12-01T13:43:17.866Z,30.38
2022-12-01T13:45:45.147Z,30.92
2022-12-01T13:48:48.963Z,29.90
2022-12-01T13:51:16.136Z,31.00
2022-12-01T13:53:56.771Z,31.20
2022-12-01T13:56:45.237Z,32.25
2022-12-01T13:59:46.287Z,31.17
2022-12-01T14:02:18.039Z,31.95
2022-12-01T14:04:45.340Z,32.90
2022-12-01T14:07:36.360Z,32.47
2022-12-01T14:10:21.258Z,33.00
2022-12-01T14:12:51.259Z,31.92
2022-12-01T14:15:29.109Z,33.97
2022-12-01T14:18:08.319Z,32.20
2022-12-01T14:20:44.720Z,34.13
2022-12-01T14:23:16.311Z,34.75
2022-12-01T14:25:56.836Z,36.75
2022-12-01T14:28:55.833Z,36.50
2022-12-01T14:31:24.161Z,36.63
2022-12-01T14:33:54.539Z,36.67
2022-12-01T14:36:24.419Z,41.28
2022-12-01T14:39:03.489Z,38.33
2022-12-01T14:41:41.772Z,38.30
2022-12-01T14:44:37.984Z,39.40
2022-12-01T14:47:10.996Z,36.30
2022-12-01T14:49:55.552Z,37.38
2022-12-01T14:52:33.554Z,37.60
2022-12-01T14:55:05.635Z,39.65
2022-12-01T14:57:38.080Z,39.75
2022-12-01T15:00:17.353Z,39.67
2022-12-01T15:03:00.904Z,38.22
2022-12-01T15:08:18.734Z,39.42
2022-12-01T15:10:55.272Z,43.40
2022-12-01T15:13:49.360Z,45.63
2022-12-01T15:16:20.162Z,47.25
2022-12-01T15:18:47.493Z,44.00
2022-12-01T15:21:24.055Z,46.70
2022-12-01T15:23:55.581Z,46.90
2022-12-01T15:26:26.134Z,46.58
2022-12-01T15:29:24.925Z,47.67
2022-12-01T15:32:08.836Z,49.35
2022-12-01T15:34:41.577Z,48.03
2022-12-01T15:37:19.553Z,47.47
2022-12-01T15:40:00.880Z,47.75
2022-12-01T15:42:39.511Z,47.90
2022-12-01T15:45:18.066Z,47.97
2022-12-01T15:47:47.285Z,48.85
2022-12-01T15:50:33.775Z,51.83
2022-12-01T15:53:07.190Z,52.22
2022-12-01T15:55:37.348Z,48.67
2022-12-01T15:58:09.659Z,53.97
2022-12-01T16:00:36.767Z,48.87
2022-12-01T16:03:03.831Z,51.55
2022-12-01T16:05:33.064Z,50.58
2022-12-01T16:08:17.863Z,50.55
2022-12-01T16:10:44.922Z,49.50
2022-12-01T16:13:41.815Z,49.40
2022-12-01T16:16:43.810Z,50.53
2022-12-01T16:19:10.611Z,51.58
2022-12-01T16:21:50.954Z,51.35
2022-12-01T16:24:20.231Z,51.20
2022-12-01T16:26:57.059Z,52.88
2022-12-01T16:29:26.293Z,53.75
2022-12-01T16:34:48.202Z,55.88
2022-12-01T16:37:15.643Z,55.25
2022-12-01T16:39:42.659Z,53.22
2022-12-01T16:42:14.835Z,57.42
2022-12-01T16:44:44.654Z,52.72
2022-12-01T16:47:25.427Z,50.72
2022-12-01T16:49:52.692Z,53.78
2022-12-01T16:55:28.403Z,54.15
2022-12-01T16:57:55.584Z,54.53
2022-12-01T17:00:23.465Z,53.88
2022-12-01T17:02:50.624Z,52.95
2022-12-01T17:05:17.610Z,53.25
2022-12-01T17:07:44.771Z,52.90
2022-12-01T17:10:12.641Z,54.20
2022-12-01T17:12:39.620Z,51.97
2022-12-01T17:15:06.853Z,51.38
2022-12-01T17:17:33.890Z,53.75
2022-12-01T17:20:00.730Z,49.60
2022-12-01T17:22:27.944Z,50.95
2022-12-01T17:24:55.562Z,51.72
2022-12-01T17:27:24.587Z,48.80
2022-12-01T17:29:51.591Z,50.75
2022-12-01T17:32:18.384Z,52.25
2022-12-01T17:34:45.167Z,49.92
2022-12-01T17:37:14.939Z,52.28
2022-12-01T17:39:44.562Z,51.60
2022-12-01T17:42:11.424Z,50.67
2022-12-01T17:44:38.310Z,50.35
2022-12-01T17:47:05.422Z,49.88
2022-12-01T17:49:32.358Z,47.40
2022-12-01T17:51:59.266Z,48.80
2022-12-01T17:54:26.404Z,50.05
2022-12-01T17:56:53.336Z,49.08
2022-12-01T17:59:20.213Z,50.80
2022-12-01T18:01:47.193Z,49.75
2022-12-01T18:04:14.347Z,48.85
2022-12-01T18:06:41.243Z,47.50
2022-12-01T18:09:08.365Z,47.42
2022-12-01T18:11:35.235Z,48.47
2022-12-01T18:14:02.043Z,48.38
2022-12-01T18:16:31.443Z,47.20
2022-12-01T18:19:00.077Z,47.58
2022-12-01T18:21:27.967Z,49.28
2022-12-01T18:23:59.760Z,48.42
2022-12-01T18:26:28.011Z,50.75
2022-12-01T18:29:01.722Z,49.88
2022-12-01T18:31:30.432Z,48.42
2022-12-01T18:33:59.380Z,50.67
2022-12-01T18:36:26.511Z,50.40
2022-12-01T18:38:54.574Z,48.28
2022-12-01T18:41:21.570Z,47.67
2022-12-01T18:43:48.537Z,46.92
2022-12-01T18:46:16.554Z,48.28
2022-12-01T18:49:02.917Z,48.40
2022-12-01T18:51:31.861Z,48.33
2022-12-01T18:54:00.939Z,48.53
2022-12-01T18:56:28.162Z,48.45
2022-12-01T18:59:00.012Z,49.75
2022-12-01T19:01:31.863Z,50.75
2022-12-01T19:03:59.547Z,49.28
2022-12-01T19:06:28.110Z,47.13
2022-12-01T19:08:55.806Z,44.70
2022-12-01T19:11:22.690Z,47.30
2022-12-01T19:13:49.569Z,45.72
2022-12-01T19:16:18.558Z,46.40
2022-12-01T19:18:46.004Z,45.88
2022-12-01T19:21:15.552Z,46.35
2022-12-01T19:23:43.090Z,46.05
2022-12-01T19:26:18.563Z,44.65
2022-12-01T19:28:46.364Z,45.53
2022-12-01T19:31:15.724Z,47.30
2022-12-01T19:33:42.644Z,44.72
2022-12-01T19:36:12.761Z,46.40
2022-12-01T19:38:40.135Z,44.20
2022-12-01T19:41:08.377Z,45.58
2022-12-01T19:43:35.961Z,45.33
2022-12-01T19:46:08.128Z,45.90
2022-12-01T19:48:35.451Z,42.65
2022-12-01T19:51:02.840Z,46.35
2022-12-01T19:53:33.503Z,46.15
2022-12-01T19:56:05.047Z,45.97
2022-12-01T19:58:35.111Z,43.25
2022-12-01T20:01:13.911Z,45.30
2022-12-01T20:03:41.138Z,47.35
2022-12-01T20:06:10.966Z,45.25
2022-12-01T20:08:38.328Z,43.03
2022-12-01T20:11:06.100Z,44.13
2022-12-01T20:13:37.119Z,43.88
2022-12-01T20:16:06.231Z,44.90
2022-12-01T20:18:33.750Z,46.00
2022-12-01T20:21:10.284Z,43.13
2022-12-01T20:23:37.528Z,43.78
2022-12-01T20:26:07.100Z,45.80
2022-12-01T20:28:35.477Z,45.40
2022-12-01T20:31:02.491Z,44.38
2022-12-01T20:33:29.692Z,42.22
2022-12-01T20:35:56.507Z,43.67
2022-12-01T20:38:27.458Z,45.30
2022-12-01T20:40:54.720Z,43.38
2022-12-01T20:43:21.680Z,40.17
2022-12-01T20:45:48.579Z,42.10
2022-12-01T20:48:17.198Z,40.65
2022-12-01T20:50:44.184Z,37.30
2022-12-01T20:53:11.581Z,37.03
2022-12-01T20:55:39.094Z,34.13
2022-12-01T20:58:08.798Z,31.63
2022-12-01T21:00:41.019Z,33.55
2022-12-01T21:03:08.385Z,34.10
2022-12-01T21:05:38.140Z,29.60
2022-12-01T21:08:07.504Z,30.63
2022-12-01T21:10:37.990Z,29.02
2022-12-01T21:13:39.128Z,30.80
2022-12-01T21:16:14.321Z,31.10
2022-12-01T21:18:52.418Z,32.38
2022-12-01T21:21:23.557Z,33.45
2022-12-01T21:24:18.723Z,37.33
2022-12-01T21:26:52.485Z,35.25
2022-12-01T21:29:19.308Z,32.90
2022-12-01T21:31:48.620Z,32.35
2022-12-01T21:34:22.198Z,32.25
2022-12-01T21:36:51.323Z,32.42
2022-12-01T21:39:23.551Z,33.28
2022-12-01T21:41:54.607Z,30.13
2022-12-01T21:44:23.769Z,30.50
2022-12-01T21:46:55.334Z,31.25
2022-12-01T21:49:33.231Z,31.23
2022-12-01T21:52:00.205Z,31.98
2022-12-01T21:54:29.168Z,32.13
2022-12-01T21:56:58.259Z,30.10
2022-12-01T21:59:25.128Z,30.27
2022-12-01T22:01:56.585Z,30.40
2022-12-01T22:04:27.869Z,32.83
2022-12-01T22:06:56.493Z,31.08
2022-12-01T22:09:27.315Z,30.10
2022-12-01T22:12:15.619Z,30.80
2022-12-01T22:14:42.384Z,31.20
2022-12-01T22:17:09.136Z,30.45
2022-12-01T22:19:39.361Z,30.85
2022-12-01T22:22:09.160Z,33.33
2022-12-01T22:24:42.216Z,31.73
2022-12-01T22:27:19.150Z,30.63
2022-12-01T22:29:47.587Z,31.05
2022-12-01T22:32:14.396Z,33.67
2022-12-01T22:34:51.025Z,32.20
2022-12-01T22:37:24.302Z,32.28
2022-12-01T22:39:55.631Z,32.67
2022-12-01T22:42:34.310Z,33.22
2022-12-01T22:45:22.299Z,31.73
2022-12-01T22:47:49.147Z,31.77
2022-12-01T22:50:29.297Z,34.53
2022-12-01T22:52:59.856Z,33.55
2022-12-01T22:55:26.661Z,32.03
2022-12-01T22:57:53.893Z,33.00
2022-12-01T23:00:24.414Z,30.98
2022-12-01T23:02:55.577Z,32.75
2022-12-01T23:05:26.250Z,32.00
2022-12-01T23:07:54.355Z,31.67
2022-12-01T23:10:29.133Z,34.80
2022-12-01T23:13:00.332Z,32.88
2022-12-01T23:15:39.577Z,34.15
2022-12-01T23:18:18.517Z,34.67
2022-12-01T23:20:48.361Z,34.55
2022-12-01T23:23:18.126Z,34.25
2022-12-01T23:25:46.510Z,33.53
2022-12-01T23:28:13.870Z,33.35
2022-12-01T23:30:43.194Z,35.40
2022-12-01T23:33:13.460Z,32.42
2022-12-01T23:36:00.406Z,32.20
2022-12-01T23:38:42.663Z,33.78
2022-12-01T23:41:16.491Z,30.90
2022-12-01T23:43:44.937Z,32.10
2022-12-01T23:46:24.317Z,31.58
2022-12-01T23:48:53.757Z,33.42
2022-12-01T23:51:25.445Z,33.95
2022-12-01T23:53:53.401Z,31.50
2022-12-01T23:56:22.911Z,29.10
2022-12-01T23:58:51.076Z,29.90
